Time;durP1;ratioP1;P1;durP2;ratioP2;P2;SDS_P1;SDS_P2;PMS_P1;PMS_P2;Temp;Humidity;BMP_temperature;BMP_pressure;BME280_temperature;BME280_humidity;BME280_pressure;Samples;Min_cycle;Max_cycle;Signal;HPM_P1;HPM_P2
2024/03/19 00:01:44;;;;;;;19.70;5.57;;;8.90;99.90;;;;;;5060010;28;20320;-86
2024/03/19 00:04:10;;;;;;;21.77;5.60;;;9.00;99.90;;;;;;5042164;28;20260;-86
2024/03/19 00:06:36;;;;;;;23.63;6.60;;;9.00;99.90;;;;;;5059755;28;20192;-86
2024/03/19 00:09:03;;;;;;;22.00;5.70;;;9.00;99.90;;;;;;5059841;28;20219;-86
2024/03/19 00:11:28;;;;;;;20.27;5.43;;;9.10;99.90;;;;;;5060090;28;20674;-86
2024/03/19 00:13:54;;;;;;;19.70;6.27;;;9.10;99.90;;;;;;5042623;28;20165;-86
2024/03/19 00:16:20;;;;;;;22.30;5.23;;;9.20;99.90;;;;;;5059743;28;20657;-87
2024/03/19 00:18:45;;;;;;;28.63;5.53;;;9.20;99.90;;;;;;5060358;28;20608;-86
2024/03/19 00:21:11;;;;;;;20.33;5.60;;;9.30;99.90;;;;;;5059670;28;20211;-86
2024/03/19 00:23:37;;;;;;;18.47;4.43;;;9.30;99.90;;;;;;5059746;28;20201;-85
2024/03/19 00:26:05;;;;;;;21.47;5.87;;;9.30;99.90;;;;;;5059991;28;20530;-86
2024/03/19 00:28:31;;;;;;;20.38;5.50;;;9.30;99.90;;;;;;5041618;28;20464;-86
2024/03/19 00:30:57;;;;;;;20.05;6.68;;;9.40;99.90;;;;;;5059379;28;20181;-86
2024/03/19 00:33:23;;;;;;;18.60;5.23;;;9.40;99.90;;;;;;5059050;28;20676;-86
2024/03/19 00:35:49;;;;;;;22.53;6.30;;;9.50;99.90;;;;;;5041846;28;20533;-86
2024/03/19 00:38:15;;;;;;;22.73;6.63;;;9.50;99.90;;;;;;5041827;28;20169;-87
2024/03/19 00:40:40;;;;;;;17.00;4.57;;;9.50;99.90;;;;;;5063590;28;20201;-87
2024/03/19 00:43:07;;;;;;;19.10;5.50;;;9.50;99.90;;;;;;5065814;28;20212;-87
2024/03/19 00:45:33;;;;;;;20.02;5.43;;;9.50;99.90;;;;;;5066848;28;20531;-87
2024/03/19 00:47:59;;;;;;;20.53;5.63;;;9.50;99.90;;;;;;5065630;28;20171;-87
2024/03/19 00:50:25;;;;;;;18.93;4.97;;;9.50;99.90;;;;;;5048346;28;20173;-87
2024/03/19 00:52:51;;;;;;;17.90;4.67;;;9.40;99.90;;;;;;5065978;28;20439;-87
2024/03/19 00:55:17;;;;;;;18.52;5.20;;;9.40;99.90;;;;;;5065527;28;20227;-86
2024/03/19 00:57:43;;;;;;;20.67;5.13;;;9.40;99.90;;;;;;5045997;28;20165;-87
2024/03/19 01:00:10;;;;;;;17.50;4.97;;;9.30;99.90;;;;;;5065279;28;20169;-87
2024/03/19 01:02:40;;;;;;;21.67;5.38;;;9.30;99.90;;;;;;5047705;28;20201;-87
2024/03/19 01:05:09;;;;;;;17.08;4.35;;;9.30;99.90;;;;;;5065297;28;20201;-87
2024/03/19 01:07:44;;;;;;;18.70;5.15;;;9.20;99.90;;;;;;5065571;28;20168;-87
2024/03/19 01:10:11;;;;;;;19.13;5.65;;;9.20;99.90;;;;;;5047534;28;20164;-87
2024/03/19 01:12:41;;;;;;;21.10;5.40;;;9.10;99.90;;;;;;5048724;28;20269;-87
2024/03/19 01:15:07;;;;;;;17.35;4.15;;;9.00;99.90;;;;;;5046625;28;20256;-87
2024/03/19 01:17:36;;;;;;;18.70;4.77;;;9.00;99.90;;;;;;5065402;28;20165;-87
2024/03/19 01:20:04;;;;;;;15.43;3.53;;;9.00;99.90;;;;;;5065834;28;20454;-87
2024/03/19 01:22:29;;;;;;;19.70;4.95;;;8.90;99.90;;;;;;5062960;28;20610;-86
2024/03/19 01:24:55;;;;;;;17.10;4.97;;;8.90;99.90;;;;;;5041054;28;20177;-85
2024/03/19 01:27:21;;;;;;;18.87;4.30;;;8.90;99.90;;;;;;5058241;28;20165;-86
2024/03/19 01:29:47;;;;;;;17.80;5.00;;;8.90;99.90;;;;;;5058166;28;20168;-86
2024/03/19 01:32:13;;;;;;;22.10;4.60;;;9.00;99.90;;;;;;5057575;28;20479;-86
2024/03/19 01:34:39;;;;;;;21.65;4.72;;;9.00;99.90;;;;;;5057882;28;20197;-86
2024/03/19 01:37:04;;;;;;;18.50;4.50;;;9.00;99.90;;;;;;5039495;28;20172;-86
2024/03/19 01:39:32;;;;;;;20.03;4.77;;;9.00;99.90;;;;;;5057022;28;20184;-87
2024/03/19 01:41:57;;;;;;;18.02;4.03;;;9.10;99.90;;;;;;5056785;28;20919;-86
2024/03/19 01:44:23;;;;;;;16.73;3.50;;;9.10;99.90;;;;;;5057830;28;20165;-86
2024/03/19 01:46:49;;;;;;;17.07;3.93;;;9.10;99.90;;;;;;5039757;28;20173;-86
2024/03/19 01:49:16;;;;;;;17.03;4.20;;;9.10;99.90;;;;;;5057382;28;20169;-86
2024/03/19 01:51:43;;;;;;;16.65;4.18;;;9.10;99.90;;;;;;5056668;28;20228;-86
2024/03/19 01:54:13;;;;;;;18.63;4.50;;;9.10;99.90;;;;;;5039086;28;20180;-86
2024/03/19 01:56:40;;;;;;;20.30;4.53;;;9.10;99.90;;;;;;5057137;28;20157;-86
2024/03/19 01:59:06;;;;;;;18.60;4.20;;;9.10;99.90;;;;;;5056708;28;20272;-87
2024/03/19 02:01:31;;;;;;;20.27;5.10;;;9.10;99.90;;;;;;5039162;28;20223;-86
2024/03/19 02:03:58;;;;;;;18.00;5.30;;;9.10;99.90;;;;;;5056435;28;20896;-86
2024/03/19 02:06:23;;;;;;;16.77;3.30;;;9.10;99.90;;;;;;5056417;28;20162;-86
2024/03/19 02:09:05;;;;;;;17.40;4.57;;;9.10;99.90;;;;;;5055700;28;20168;-86
2024/03/19 02:11:32;;;;;;;17.92;4.43;;;9.00;99.90;;;;;;5056650;28;20306;-85
2024/03/19 02:14:01;;;;;;;16.35;4.63;;;9.00;99.90;;;;;;5038518;28;20223;-86
2024/03/19 02:16:30;;;;;;;21.05;4.10;;;8.90;99.90;;;;;;5056024;28;20157;-86
2024/03/19 02:18:57;;;;;;;23.88;4.43;;;8.90;99.90;;;;;;5056019;28;20169;-86
2024/03/19 02:21:25;;;;;;;18.95;4.15;;;8.90;99.90;;;;;;5055877;28;20185;-86
2024/03/19 02:23:52;;;;;;;15.77;4.25;;;8.90;99.90;;;;;;5056362;28;20688;-86
2024/03/19 02:26:18;;;;;;;17.55;4.60;;;8.90;99.90;;;;;;5055973;28;20630;-86
2024/03/19 02:28:44;;;;;;;21.73;5.40;;;8.90;99.90;;;;;;5038451;28;20260;-86
2024/03/19 02:31:09;;;;;;;22.33;5.27;;;8.90;99.90;;;;;;5055713;28;20269;-86
2024/03/19 02:33:35;;;;;;;23.03;5.33;;;8.80;99.90;;;;;;5055907;28;20192;-86
2024/03/19 02:36:00;;;;;;;19.00;5.10;;;8.80;99.90;;;;;;5056012;28;20168;-86
2024/03/19 02:38:27;;;;;;;17.27;4.47;;;8.80;99.90;;;;;;5055912;28;20165;-86
2024/03/19 02:40:53;;;;;;;16.13;4.40;;;8.80;99.90;;;;;;5038360;28;20283;-86
2024/03/19 02:43:21;;;;;;;17.33;4.27;;;8.80;99.90;;;;;;5040938;28;20215;-87
2024/03/19 02:45:47;;;;;;;19.00;4.25;;;8.80;99.90;;;;;;5064402;28;20164;-87
2024/03/19 02:48:14;;;;;;;18.53;4.13;;;8.80;99.90;;;;;;5065125;28;20176;-87
2024/03/19 02:50:40;;;;;;;20.60;5.25;;;8.70;99.90;;;;;;5046578;28;20540;-87
2024/03/19 02:53:05;;;;;;;18.03;4.53;;;8.80;99.90;;;;;;5064795;28;20208;-87
2024/03/19 02:55:31;;;;;;;18.10;4.13;;;8.70;99.90;;;;;;5064312;28;20157;-87
2024/03/19 02:58:00;;;;;;;22.63;5.13;;;8.80;99.90;;;;;;5064985;28;20165;-87
2024/03/19 03:00:25;;;;;;;16.98;4.88;;;8.80;99.90;;;;;;5064268;28;20408;-87
2024/03/19 03:02:51;;;;;;;19.80;5.30;;;8.80;99.90;;;;;;5064564;28;20220;-87
2024/03/19 03:05:16;;;;;;;19.60;5.50;;;8.90;99.90;;;;;;5064464;28;20692;-87
2024/03/19 03:07:42;;;;;;;19.87;4.77;;;8.80;99.90;;;;;;5047029;28;20172;-87
2024/03/19 03:10:08;;;;;;;27.33;4.97;;;8.90;99.90;;;;;;5046621;28;20681;-87
2024/03/19 03:12:33;;;;;;;21.03;5.40;;;8.90;99.90;;;;;;5064427;28;20192;-87
2024/03/19 03:14:59;;;;;;;20.60;4.93;;;8.90;99.90;;;;;;5046498;28;20260;-87
2024/03/19 03:17:25;;;;;;;21.37;5.80;;;8.90;99.90;;;;;;5064977;28;20219;-87
2024/03/19 03:19:50;;;;;;;17.50;5.50;;;8.90;99.90;;;;;;5064555;28;20415;-87
2024/03/19 03:22:16;;;;;;;27.13;7.63;;;8.90;99.90;;;;;;5068110;28;20193;-87
2024/03/19 03:24:42;;;;;;;19.43;5.50;;;8.90;99.90;;;;;;5067806;28;20228;-87
2024/03/19 03:27:07;;;;;;;27.97;6.90;;;8.90;99.90;;;;;;5067510;28;20169;-87
2024/03/19 03:29:33;;;;;;;19.43;6.00;;;8.90;99.90;;;;;;5067981;28;20180;-88
2024/03/19 03:31:59;;;;;;;24.37;5.43;;;8.90;99.90;;;;;;5068193;28;20197;-87
2024/03/19 03:34:28;;;;;;;17.70;4.60;;;8.90;99.90;;;;;;5068394;28;20258;-87
2024/03/19 03:36:55;;;;;;;17.65;5.18;;;8.90;99.90;;;;;;5069828;28;20161;-87
2024/03/19 03:39:21;;;;;;;23.27;5.32;;;8.90;99.90;;;;;;5050481;28;20322;-87
2024/03/19 03:41:47;;;;;;;19.25;4.78;;;8.90;99.90;;;;;;5067976;28;20223;-87
2024/03/19 03:44:13;;;;;;;20.97;5.40;;;9.00;99.90;;;;;;5050564;28;20196;-87
2024/03/19 03:46:39;;;;;;;18.88;4.10;;;9.00;99.90;;;;;;5068913;28;20480;-87
2024/03/19 03:49:05;;;;;;;22.10;4.67;;;8.90;99.90;;;;;;5068246;28;20169;-87
2024/03/19 03:51:31;;;;;;;18.00;4.80;;;8.90;99.90;;;;;;5049862;28;20212;-87
2024/03/19 03:53:58;;;;;;;20.98;4.80;;;8.90;99.90;;;;;;5050072;28;20264;-87
2024/03/19 03:56:23;;;;;;;20.05;4.32;;;8.90;99.90;;;;;;5068238;28;20512;-87
2024/03/19 03:58:49;;;;;;;21.47;4.73;;;8.90;99.90;;;;;;5067513;28;20172;-87
2024/03/19 04:01:15;;;;;;;16.30;4.70;;;8.80;99.90;;;;;;5049402;28;20788;-87
2024/03/19 04:03:40;;;;;;;19.80;5.17;;;8.80;99.90;;;;;;5068027;28;20191;-87
2024/03/19 04:06:06;;;;;;;15.70;4.13;;;8.80;99.90;;;;;;5043849;28;20216;-87
2024/03/19 04:08:32;;;;;;;16.40;4.30;;;8.90;99.90;;;;;;5060639;28;20170;-86
2024/03/19 04:10:57;;;;;;;19.97;4.20;;;8.90;99.90;;;;;;5042038;28;20558;-86
2024/03/19 04:13:23;;;;;;;17.43;4.60;;;8.90;99.90;;;;;;5060128;28;20323;-86
2024/03/19 04:15:50;;;;;;;17.73;4.60;;;8.90;99.90;;;;;;5060377;28;20170;-86
2024/03/19 04:18:16;;;;;;;19.05;4.50;;;8.90;99.90;;;;;;5059506;28;20219;-86
2024/03/19 04:20:41;;;;;;;16.50;4.00;;;9.00;99.90;;;;;;5059846;28;20189;-86
2024/03/19 04:23:10;;;;;;;16.30;3.90;;;8.90;99.90;;;;;;5043011;28;20511;-86
2024/03/19 04:25:36;;;;;;;18.58;4.45;;;8.90;99.90;;;;;;5059723;28;20157;-86
2024/03/19 04:28:02;;;;;;;18.80;3.60;;;8.90;99.90;;;;;;5041602;28;20666;-86
2024/03/19 04:30:27;;;;;;;22.20;4.97;;;8.90;99.90;;;;;;5059742;28;20534;-86
2024/03/19 04:32:53;;;;;;;19.47;4.13;;;8.90;99.90;;;;;;5058844;28;20288;-86
2024/03/19 04:35:18;;;;;;;16.70;4.20;;;8.90;99.90;;;;;;5059481;28;20173;-86
2024/03/19 04:37:44;;;;;;;19.90;5.73;;;8.80;99.90;;;;;;5059797;28;20161;-86
2024/03/19 04:40:14;;;;;;;21.00;3.80;;;8.80;99.90;;;;;;5059661;28;20172;-86
2024/03/19 04:42:40;;;;;;;15.95;3.88;;;8.80;99.90;;;;;;5041525;28;20531;-87
2024/03/19 04:45:08;;;;;;;17.23;4.25;;;8.80;99.90;;;;;;5059416;28;20173;-86
2024/03/19 04:47:34;;;;;;;16.92;4.50;;;8.70;99.90;;;;;;5041174;28;20166;-87
2024/03/19 04:50:00;;;;;;;14.50;3.20;;;8.70;99.90;;;;;;5059427;28;20169;-86
2024/03/19 04:52:25;;;;;;;19.20;4.53;;;8.80;99.90;;;;;;5058931;28;20759;-86
2024/03/19 04:54:54;;;;;;;16.80;4.50;;;8.80;99.90;;;;;;5059140;28;20161;-86
2024/03/19 04:57:19;;;;;;;16.67;3.60;;;8.80;99.90;;;;;;5041374;28;20172;-86
2024/03/19 04:59:45;;;;;;;18.77;4.10;;;8.80;99.90;;;;;;5059409;28;20161;-86
2024/03/19 05:02:11;;;;;;;16.65;4.78;;;8.80;99.90;;;;;;5059580;28;20214;-87
2024/03/19 05:04:37;;;;;;;17.30;3.93;;;8.90;99.90;;;;;;5058691;28;20658;-86
2024/03/19 05:07:03;;;;;;;19.87;4.60;;;8.80;99.90;;;;;;5059232;28;20208;-86
2024/03/19 05:09:29;;;;;;;15.82;4.30;;;8.90;99.90;;;;;;5041761;28;20241;-86
2024/03/19 05:11:54;;;;;;;20.17;4.35;;;8.90;99.90;;;;;;5058322;28;20200;-86
2024/03/19 05:14:20;;;;;;;17.00;4.37;;;8.90;99.90;;;;;;5039777;28;20627;-86
2024/03/19 05:16:46;;;;;;;17.70;4.20;;;8.80;99.90;;;;;;5058460;28;20177;-86
2024/03/19 05:19:12;;;;;;;16.27;4.17;;;8.90;99.90;;;;;;5060115;28;20500;-86
2024/03/19 05:21:38;;;;;;;28.50;4.20;;;8.80;99.90;;;;;;5058810;28;20418;-86
2024/03/19 05:24:05;;;;;;;18.17;4.32;;;8.80;99.90;;;;;;5059066;28;20407;-86
2024/03/19 05:26:31;;;;;;;17.63;4.50;;;8.90;99.90;;;;;;5063472;28;20157;-87
2024/03/19 05:28:57;;;;;;;17.17;4.03;;;8.90;99.90;;;;;;5049099;28;20215;-87
2024/03/19 05:31:27;;;;;;;17.60;4.20;;;8.90;99.90;;;;;;5066550;28;20418;-87
2024/03/19 05:33:58;;;;;;;19.00;3.95;;;8.90;99.90;;;;;;5047854;28;20788;-87
2024/03/19 05:36:24;;;;;;;17.38;4.05;;;8.90;99.90;;;;;;5049042;28;20252;-87
2024/03/19 05:38:50;;;;;;;18.60;4.90;;;8.90;99.90;;;;;;5047997;28;20642;-87
2024/03/19 05:41:16;;;;;;;20.37;5.80;;;8.90;99.90;;;;;;5065940;28;20446;-87
2024/03/19 05:43:44;;;;;;;16.85;3.97;;;8.90;99.90;;;;;;5065919;28;20408;-87
2024/03/19 05:46:12;;;;;;;20.00;4.32;;;8.90;99.90;;;;;;5047971;28;20173;-87
2024/03/19 05:48:39;;;;;;;18.38;4.00;;;9.00;99.90;;;;;;5065571;28;20187;-87
2024/03/19 05:51:08;;;;;;;16.33;4.00;;;8.90;99.90;;;;;;5066008;28;20653;-87
2024/03/19 05:53:35;;;;;;;18.17;4.75;;;8.90;99.90;;;;;;5065848;28;20223;-87
2024/03/19 05:56:01;;;;;;;18.92;4.72;;;8.90;99.90;;;;;;5048172;28;20169;-87
2024/03/19 05:58:28;;;;;;;22.50;4.53;;;8.90;99.90;;;;;;5066106;28;20157;-87
2024/03/19 06:00:55;;;;;;;16.55;4.57;;;8.90;99.90;;;;;;5047485;28;20185;-87
2024/03/19 06:03:22;;;;;;;16.23;3.97;;;8.90;99.90;;;;;;5047753;28;20183;-87
2024/03/19 06:06:03;;;;;;;16.65;3.92;;;8.90;99.90;;;;;;5065309;28;20169;-87
2024/03/19 06:08:29;;;;;;;16.90;4.50;;;8.90;99.90;;;;;;5047932;28;20248;-87
2024/03/19 06:10:55;;;;;;;19.07;4.30;;;8.90;99.90;;;;;;5065349;28;20192;-87
2024/03/19 06:13:21;;;;;;;17.53;5.47;;;8.90;99.90;;;;;;5065408;28;20185;-87
2024/03/19 06:15:47;;;;;;;19.50;4.60;;;8.90;99.90;;;;;;5065091;28;20904;-87
2024/03/19 06:18:12;;;;;;;19.40;4.83;;;8.90;99.90;;;;;;5065204;28;20176;-87
2024/03/19 06:20:38;;;;;;;17.93;4.53;;;8.90;99.90;;;;;;5065156;28;20231;-87
2024/03/19 06:23:07;;;;;;;18.03;4.90;;;9.00;99.90;;;;;;5064895;28;20495;-87
2024/03/19 06:25:35;;;;;;;22.23;5.07;;;9.10;99.90;;;;;;5064961;28;20410;-87
2024/03/19 06:28:00;;;;;;;22.23;5.75;;;9.10;99.90;;;;;;5064220;28;20159;-87
2024/03/19 06:30:26;;;;;;;18.83;5.40;;;9.00;99.90;;;;;;5064382;28;20190;-87
2024/03/19 06:32:51;;;;;;;20.43;5.00;;;9.10;99.90;;;;;;5064275;28;20188;-87
2024/03/19 06:35:17;;;;;;;22.17;5.37;;;9.10;99.90;;;;;;5060593;28;20168;-86
2024/03/19 06:37:43;;;;;;;18.90;4.37;;;9.20;99.90;;;;;;5061310;28;20228;-87
2024/03/19 06:40:10;;;;;;;16.98;4.40;;;9.30;99.90;;;;;;5063201;28;20165;-87
2024/03/19 06:42:38;;;;;;;18.63;5.30;;;9.30;99.90;;;;;;5045885;28;20578;-87
2024/03/19 06:45:04;;;;;;;18.52;4.90;;;9.30;99.90;;;;;;5064524;28;20175;-87
2024/03/19 06:47:30;;;;;;;20.15;6.00;;;9.40;99.90;;;;;;5043055;28;20157;-87
2024/03/19 06:49:56;;;;;;;18.70;4.83;;;9.40;99.90;;;;;;5040197;28;20169;-87
2024/03/19 06:52:22;;;;;;;17.80;4.60;;;9.50;99.90;;;;;;5039478;28;20207;-86
2024/03/19 06:54:47;;;;;;;24.90;5.20;;;9.50;99.90;;;;;;5056671;28;20236;-86
2024/03/19 06:57:13;;;;;;;22.47;5.17;;;9.50;99.90;;;;;;5056926;28;20161;-86
2024/03/19 06:59:39;;;;;;;17.20;4.90;;;9.50;99.90;;;;;;5056081;28;20253;-86
2024/03/19 07:02:07;;;;;;;18.90;4.43;;;9.50;99.90;;;;;;5055763;28;20600;-86
2024/03/19 07:04:34;;;;;;;20.33;4.90;;;9.60;99.90;;;;;;5037641;28;20176;-86
2024/03/19 07:07:00;;;;;;;21.10;5.75;;;9.60;99.90;;;;;;5056016;28;20161;-86
2024/03/19 07:09:27;;;;;;;19.57;4.70;;;9.80;99.90;;;;;;5037566;28;20271;-86
2024/03/19 07:11:52;;;;;;;16.98;4.25;;;9.80;99.90;;;;;;5055438;28;20188;-87
2024/03/19 07:14:20;;;;;;;17.83;4.57;;;9.90;99.90;;;;;;5036978;28;20218;-86
2024/03/19 07:16:46;;;;;;;23.90;4.15;;;9.90;99.90;;;;;;5055549;28;20534;-86
2024/03/19 07:19:11;;;;;;;21.00;5.53;;;9.90;99.90;;;;;;5055651;28;20165;-86
2024/03/19 07:21:37;;;;;;;20.37;4.70;;;9.90;99.90;;;;;;5037242;28;20188;-86
2024/03/19 07:24:03;;;;;;;19.73;4.50;;;9.90;99.90;;;;;;5036828;28;20631;-86
2024/03/19 07:26:29;;;;;;;17.80;4.47;;;9.90;99.90;;;;;;5036740;28;20439;-86
2024/03/19 07:28:55;;;;;;;19.00;5.50;;;10.00;99.90;;;;;;5054669;28;20200;-86
2024/03/19 07:31:20;;;;;;;16.93;4.43;;;10.00;99.90;;;;;;5054743;28;20189;-86
2024/03/19 07:33:47;;;;;;;23.53;4.10;;;10.10;99.90;;;;;;5037048;28;20283;-87
2024/03/19 07:36:15;;;;;;;23.33;4.82;;;10.30;99.90;;;;;;5054885;28;20168;-86
2024/03/19 07:38:41;;;;;;;15.98;4.15;;;10.30;99.90;;;;;;5036271;28;20166;-86
2024/03/19 07:41:10;;;;;;;18.23;4.70;;;10.40;99.90;;;;;;5054485;28;20206;-86
2024/03/19 07:43:39;;;;;;;18.65;5.90;;;10.50;99.90;;;;;;5054405;28;20280;-86
2024/03/19 07:46:05;;;;;;;17.05;4.22;;;10.50;99.90;;;;;;5054877;28;20215;-86
2024/03/19 07:48:32;;;;;;;21.13;6.25;;;10.60;99.90;;;;;;5054550;28;20169;-87
2024/03/19 07:50:58;;;;;;;18.75;5.35;;;10.80;99.90;;;;;;5054510;28;20193;-86
2024/03/19 07:53:25;;;;;;;25.67;6.57;;;10.70;99.90;;;;;;5036236;28;20210;-86
2024/03/19 07:55:51;;;;;;;23.33;7.88;;;10.80;99.90;;;;;;5054450;28;20161;-86
2024/03/19 07:58:16;;;;;;;26.90;7.40;;;10.80;99.90;;;;;;5054106;28;20161;-86
2024/03/19 08:00:42;;;;;;;24.43;8.37;;;11.00;99.90;;;;;;5036474;28;20519;-86
2024/03/19 08:03:08;;;;;;;22.10;7.70;;;11.00;99.90;;;;;;5054716;28;20169;-87
2024/03/19 08:05:34;;;;;;;21.40;9.60;;;11.10;99.90;;;;;;5037189;28;21010;-86
2024/03/19 08:08:01;;;;;;;27.40;9.90;;;11.20;99.90;;;;;;5056281;28;20169;-86
2024/03/19 08:10:27;;;;;;;27.17;8.70;;;11.10;99.90;;;;;;5064965;28;20197;-87
2024/03/19 08:12:53;;;;;;;29.27;9.00;;;11.10;99.90;;;;;;5067067;28;20200;-87
2024/03/19 08:15:18;;;;;;;28.90;8.53;;;11.00;99.90;;;;;;5066181;28;20161;-87
2024/03/19 08:17:44;;;;;;;32.30;10.40;;;11.10;99.90;;;;;;5066689;28;20399;-87
2024/03/19 08:20:16;;;;;;;28.97;8.20;;;11.20;99.90;;;;;;5049528;28;20534;-87
2024/03/19 08:22:44;;;;;;;23.10;7.38;;;11.10;99.90;;;;;;5049366;28;20169;-87
2024/03/19 08:25:11;;;;;;;21.65;6.65;;;11.20;99.90;;;;;;5067022;28;20169;-87
2024/03/19 08:27:37;;;;;;;21.33;8.10;;;11.10;99.90;;;;;;5048649;28;20193;-87
2024/03/19 08:30:08;;;;;;;22.03;7.60;;;11.30;99.90;;;;;;5066343;28;20238;-87
2024/03/19 08:32:34;;;;;;;25.60;7.93;;;11.20;99.90;;;;;;5065795;28;20451;-87
2024/03/19 08:35:01;;;;;;;20.85;6.82;;;11.30;99.90;;;;;;5066346;28;20181;-87
2024/03/19 08:37:27;;;;;;;21.52;6.22;;;11.30;99.90;;;;;;5066426;28;20161;-87
2024/03/19 08:39:54;;;;;;;25.70;8.30;;;11.40;99.90;;;;;;5066368;28;20522;-87
2024/03/19 08:42:19;;;;;;;24.73;8.13;;;11.30;99.90;;;;;;5066208;28;20197;-87
2024/03/19 08:44:45;;;;;;;23.20;6.37;;;11.40;99.90;;;;;;5066120;28;20173;-88
2024/03/19 08:47:11;;;;;;;25.67;7.33;;;11.40;99.90;;;;;;5049161;28;20170;-88
2024/03/19 08:49:36;;;;;;;21.60;6.30;;;11.40;99.90;;;;;;5065873;28;20177;-87
2024/03/19 08:52:02;;;;;;;22.60;8.23;;;11.40;99.90;;;;;;5065942;28;20268;-87
2024/03/19 08:54:29;;;;;;;27.30;8.60;;;11.40;99.90;;;;;;5048443;28;20170;-87
2024/03/19 08:56:55;;;;;;;30.80;7.65;;;11.50;99.90;;;;;;5048652;28;20165;-87
2024/03/19 08:59:20;;;;;;;21.53;6.03;;;11.50;99.90;;;;;;5065929;28;20168;-87
2024/03/19 09:01:46;;;;;;;30.13;8.23;;;11.60;99.90;;;;;;5066120;28;20189;-87
2024/03/19 09:04:12;;;;;;;23.03;7.80;;;11.50;99.90;;;;;;5066635;28;20697;-86
2024/03/19 09:06:37;;;;;;;22.27;6.90;;;11.50;99.90;;;;;;5065749;28;20161;-87
2024/03/19 09:09:07;;;;;;;26.90;8.27;;;11.50;99.90;;;;;;5065870;28;20638;-87
2024/03/19 09:11:35;;;;;;;31.15;8.20;;;11.60;99.90;;;;;;5066073;28;20177;-87
2024/03/19 09:14:00;;;;;;;23.15;8.00;;;11.70;99.90;;;;;;5065718;28;20646;-87
2024/03/19 09:16:26;;;;;;;20.30;7.60;;;11.80;99.90;;;;;;5066056;28;20172;-87
2024/03/19 09:18:52;;;;;;;23.10;8.30;;;11.70;99.90;;;;;;5065524;28;20165;-86
2024/03/19 09:21:17;;;;;;;26.17;7.40;;;11.70;99.90;;;;;;5066334;28;20181;-86
2024/03/19 09:23:43;;;;;;;37.73;8.13;;;11.90;99.90;;;;;;5066266;28;20169;-86
2024/03/19 09:26:09;;;;;;;20.80;7.30;;;12.00;99.90;;;;;;5066471;28;20161;-87
2024/03/19 09:28:35;;;;;;;20.20;7.10;;;12.10;99.90;;;;;;5065943;28;20185;-87
2024/03/19 09:31:01;;;;;;;24.30;6.53;;;12.20;99.90;;;;;;5065192;28;20192;-86
2024/03/19 09:33:27;;;;;;;21.00;6.33;;;12.40;99.90;;;;;;5059902;28;20487;-86
2024/03/19 09:35:53;;;;;;;20.50;6.47;;;12.50;99.90;;;;;;5058090;28;20442;-86
2024/03/19 09:38:19;;;;;;;22.00;6.67;;;12.60;99.90;;;;;;5040747;28;20219;-85
2024/03/19 09:40:55;;;;;;;22.80;6.22;;;12.70;99.90;;;;;;5039083;28;20970;-86
2024/03/19 09:43:24;;;;;;;23.25;6.43;;;12.60;99.90;;;;;;5039743;28;20176;-86
2024/03/19 09:45:51;;;;;;;19.13;5.47;;;12.80;99.90;;;;;;5056563;28;20192;-86
2024/03/19 09:48:19;;;;;;;19.38;5.78;;;12.80;99.90;;;;;;5038449;28;20217;-86
2024/03/19 09:50:47;;;;;;;25.98;7.15;;;12.80;99.90;;;;;;5056053;28;20617;-86
2024/03/19 09:53:21;;;;;;;23.52;6.63;;;12.90;99.90;;;;;;5037993;28;20202;-86
2024/03/19 09:55:47;;;;;;;20.10;6.80;;;13.00;99.90;;;;;;5038890;28;20610;-86
2024/03/19 09:58:13;;;;;;;20.58;5.55;;;13.10;99.90;;;;;;5056147;28;20161;-86
2024/03/19 10:00:44;;;;;;;29.77;6.60;;;13.30;99.90;;;;;;5056812;28;20597;-86
2024/03/19 10:03:10;;;;;;;21.83;6.97;;;13.50;99.90;;;;;;5056482;28;20420;-86
2024/03/19 10:05:36;;;;;;;24.47;5.80;;;13.50;98.40;;;;;;5056662;28;20197;-86
2024/03/19 10:08:04;;;;;;;22.87;5.40;;;13.70;94.00;;;;;;5057279;28;20169;-86
2024/03/19 10:10:30;;;;;;;19.65;5.05;;;13.70;80.40;;;;;;5039421;28;20538;-87
2024/03/19 10:12:56;;;;;;;20.40;5.30;;;14.00;87.20;;;;;;5037923;28;20276;-86
2024/03/19 10:15:24;;;;;;;24.93;5.37;;;14.00;57.40;;;;;;5038074;28;20420;-86
2024/03/19 10:17:51;;;;;;;21.23;5.83;;;14.20;59.50;;;;;;5055630;28;20423;-86
2024/03/19 10:20:17;;;;;;;20.90;5.80;;;14.40;46.10;;;;;;5055389;28;20403;-86
2024/03/19 10:22:45;;;;;;;18.97;5.73;;;14.50;33.50;;;;;;5037436;28;20418;-86
2024/03/19 10:25:12;;;;;;;19.40;5.33;;;14.50;22.40;;;;;;5038100;28;20404;-86
2024/03/19 10:27:42;;;;;;;24.13;5.50;;;14.70;22.60;;;;;;5037655;28;20411;-86
2024/03/19 10:30:11;;;;;;;18.20;5.10;;;14.70;9.70;;;;;;5036927;28;20443;-86
2024/03/19 10:32:38;;;;;;;19.77;5.20;;;14.80;20.60;;;;;;5036716;28;20459;-86
2024/03/19 10:35:14;;;;;;;22.80;6.60;;;15.10;11.00;;;;;;5037384;28;20415;-86
2024/03/19 10:37:39;;;;;;;22.00;5.67;;;15.20;1.00;;;;;;5055805;28;20411;-86
2024/03/19 10:40:12;;;;;;;22.43;4.93;;;15.10;1.00;;;;;;5055194;28;20412;-87
2024/03/19 10:42:39;;;;;;;18.20;5.30;;;15.20;1.00;;;;;;5036704;28;20351;-86
2024/03/19 10:45:14;;;;;;;17.60;4.83;;;15.40;1.00;;;;;;5055107;28;20411;-86
2024/03/19 10:47:44;;;;;;;24.90;5.93;;;15.40;1.00;;;;;;5055050;28;20411;-86
2024/03/19 10:50:13;;;;;;;20.67;5.80;;;15.50;1.00;;;;;;5054825;28;20404;-86
2024/03/19 10:52:48;;;;;;;20.90;5.53;;;15.60;1.00;;;;;;5036694;28;20455;-86
2024/03/19 10:55:16;;;;;;;22.03;5.40;;;15.60;1.00;;;;;;5054624;28;20379;-86
2024/03/19 10:57:45;;;;;;;23.07;5.40;;;15.80;1.00;;;;;;5036835;28;20819;-86
2024/03/19 11:00:23;;;;;;;18.83;4.53;;;15.90;1.00;;;;;;5041971;28;20816;-87
2024/03/19 11:02:55;;;;;;;16.27;4.50;;;15.90;1.00;;;;;;5061422;28;20410;-87
2024/03/19 11:05:21;;;;;;;16.43;3.97;;;16.00;1.00;;;;;;5061073;28;20376;-87
2024/03/19 11:07:57;;;;;;;19.47;3.80;;;16.10;1.00;;;;;;5060940;28;20814;-87
2024/03/19 11:10:27;;;;;;;17.20;4.50;;;16.10;1.00;;;;;;5062050;28;20440;-87
2024/03/19 11:12:57;;;;;;;19.30;3.27;;;16.10;1.00;;;;;;5060631;28;20442;-87
2024/03/19 11:15:23;;;;;;;18.00;3.00;;;16.20;1.00;;;;;;5042472;28;20411;-87
2024/03/19 11:17:49;;;;;;;15.87;3.20;;;16.30;1.00;;;;;;5061184;28;20453;-87
2024/03/19 11:20:17;;;;;;;20.10;3.67;;;16.50;1.00;;;;;;5044056;28;20416;-87
2024/03/19 11:22:46;;;;;;;15.80;3.50;;;16.60;1.00;;;;;;5060697;28;20223;-87
2024/03/19 11:25:14;;;;;;;19.27;3.50;;;16.80;1.00;;;;;;5060990;28;20435;-87
2024/03/19 11:27:50;;;;;;;22.00;3.70;;;17.00;1.00;;;;;;5059803;28;20430;-87
2024/03/19 11:30:18;;;;;;;16.90;4.13;;;17.00;1.00;;;;;;5042267;28;20403;-87
2024/03/19 11:32:47;;;;;;;15.77;2.90;;;17.00;1.00;;;;;;5041267;28;20443;-87
2024/03/19 11:35:21;;;;;;;14.20;2.80;;;17.20;1.00;;;;;;5058978;28;20915;-87
2024/03/19 11:37:50;;;;;;;17.63;4.03;;;17.50;1.00;;;;;;5059971;28;20388;-86
2024/03/19 11:40:18;;;;;;;21.90;2.60;;;17.50;1.00;;;;;;5060239;28;20482;-86
2024/03/19 11:42:48;;;;;;;14.30;2.37;;;17.30;1.00;;;;;;5063008;28;20772;-87
2024/03/19 11:45:16;;;;;;;14.60;1.90;;;17.10;1.00;;;;;;5062927;28;20391;-87
2024/03/19 11:47:44;;;;;;;17.97;2.50;;;17.20;1.00;;;;;;5061465;28;20403;-87
2024/03/19 11:50:16;;;;;;;13.90;2.20;;;17.20;1.00;;;;;;5062057;28;20403;-87
2024/03/19 11:52:41;;;;;;;14.40;1.67;;;17.20;1.00;;;;;;5061097;28;20436;-87
2024/03/19 11:55:11;;;;;;;13.83;1.77;;;17.40;1.00;;;;;;5042912;28;20414;-87
2024/03/19 11:57:37;;;;;;;16.30;2.47;;;17.50;1.00;;;;;;5061284;28;20161;-87
2024/03/19 12:00:10;;;;;;;20.73;2.87;;;17.50;1.00;;;;;;5061883;28;20402;-86
2024/03/19 12:02:36;;;;;;;15.63;1.80;;;17.60;1.00;;;;;;5041607;28;20432;-87
2024/03/19 12:05:03;;;;;;;15.60;2.10;;;17.90;1.00;;;;;;5061382;28;20411;-87
2024/03/19 12:07:29;;;;;;;14.10;2.00;;;18.10;1.00;;;;;;5061293;28;20475;-87
2024/03/19 12:09:55;;;;;;;17.70;1.83;;;18.20;1.00;;;;;;5061780;28;20415;-85
2024/03/19 12:12:21;;;;;;;14.07;1.80;;;18.00;1.00;;;;;;5060291;28;20454;-84
2024/03/19 12:14:48;;;;;;;15.43;1.77;;;18.10;1.00;;;;;;5060807;28;20428;-85
2024/03/19 12:17:14;;;;;;;14.90;2.00;;;18.20;1.00;;;;;;5042746;28;20943;-87
2024/03/19 12:19:41;;;;;;;17.37;1.93;;;18.30;1.00;;;;;;5043413;28;20424;-87
2024/03/19 12:22:15;;;;;;;13.27;1.83;;;18.00;1.00;;;;;;5060573;28;20427;-86
2024/03/19 12:24:43;;;;;;;13.10;1.70;;;18.00;1.00;;;;;;5042517;28;20403;-87
2024/03/19 12:27:13;;;;;;;14.50;2.03;;;17.70;1.00;;;;;;5061568;28;20893;-87
2024/03/19 12:29:40;;;;;;;13.60;1.90;;;17.70;1.00;;;;;;5043499;28;20420;-87
2024/03/19 12:32:25;;;;;;;15.23;1.57;;;18.00;1.00;;;;;;5043323;28;20201;-85
2024/03/19 12:35:03;;;;;;;13.63;1.60;;;18.20;1.00;;;;;;5040768;28;20462;-85
2024/03/19 12:37:29;;;;;;;15.67;2.30;;;18.40;1.00;;;;;;5058775;28;20784;-85
2024/03/19 12:39:55;;;;;;;13.47;1.63;;;18.20;1.00;;;;;;5040245;28;20412;-84
2024/03/19 12:42:22;;;;;;;14.17;1.80;;;18.10;1.00;;;;;;5058121;28;20623;-85
2024/03/19 12:44:50;;;;;;;13.17;1.53;;;18.10;1.00;;;;;;5041082;28;20174;-85